Flight Track Log - Related Links

Times and Time Zones

All times are in EDT time to prevent confusion due to time zone crossing. See the CES5800 flight status page for this flight to view local times or setup timezone preferences in your user account.

Time Position Orientation Groundspeed Altitude Reporting Facility
EDT Latitude Longitude Course Direction KTS MPH feet Rate Location/Type
Sat 03:34:00 AM 38.4727 120.3277 243° Southwest  Level Estimated
Sat 03:35:00 AM 38.4342 120.2352 242° Southwest  Level Estimated
Sat 03:36:00 AM 38.3957 120.1429 242° Southwest  Level Estimated
Sat 03:37:00 AM 38.3571 120.0506 242° Southwest  Level Estimated
Sat 03:38:00 AM 38.3185 119.9585 242° Southwest  Level Estimated
Sat 03:39:00 AM 38.2798 119.8664 242° Southwest  Level Estimated
Sat 03:40:00 AM 38.2410 119.7744 242° Southwest  Level Estimated
Sat 03:41:00 AM 38.2021 119.6826 242° Southwest  Level Estimated
Sat 03:42:00 AM 38.1632 119.5908 242° Southwest  Level Estimated
Sat 03:43:00 AM 38.1241 119.4991 242° Southwest  Level Estimated
Sat 03:44:00 AM 38.0851 119.4075 242° Southwest  Level Estimated
Sat 03:45:00 AM 38.0459 119.3161 241° Southwest  Level Estimated
Sat 03:46:00 AM 38.0067 119.2247 241° Southwest  Level Estimated
Sat 03:47:00 AM 37.9674 119.1334 241° Southwest  Level Estimated
Sat 03:48:00 AM 37.9280 119.0422 241° Southwest  Level Estimated
Sat 03:49:00 AM 37.8886 118.9512 241° Southwest  Level Estimated
Sat 03:50:00 AM 37.8491 118.8602 241° Southwest  Level Estimated
Sat 03:51:00 AM 37.8095 118.7693 241° Southwest  Level Estimated
Sat 03:52:00 AM 37.7698 118.6785 241° Southwest  Level Estimated
Sat 03:53:00 AM 37.7301 118.5878 241° Southwest  Level Estimated
Sat 03:54:00 AM 37.6903 118.4972 241° Southwest  Level Estimated
Sat 03:55:00 AM 37.6505 118.4067 241° Southwest  Level Estimated
Sat 03:56:00 AM 37.6105 118.3163 241° Southwest  Level Estimated
Sat 03:57:00 AM 37.5706 118.2260 241° Southwest  Level Estimated
Sat 03:58:00 AM 37.5305 118.1358 241° Southwest  Level Estimated
Sat 03:59:00 AM 37.4904 118.0457 241° Southwest  Level Estimated
Sat 04:00:00 AM 37.4502 117.9557 241° Southwest  Level Estimated
Sat 04:01:00 AM 37.4099 117.8658 241° Southwest  Level Estimated
Sat 04:02:00 AM 37.3696 117.7759 241° Southwest  Level Estimated
Sat 04:03:00 AM 37.3292 117.6862 240° Southwest  Level Estimated
Sat 04:04:00 AM 37.2887 117.5966 240° Southwest  Level Estimated
Sat 04:05:00 AM 37.2482 117.5070 240° Southwest  Level Estimated
Sat 04:06:00 AM 37.2076 117.4176 240° Southwest  Level Estimated
Sat 04:07:00 AM 37.1669 117.3283 240° Southwest  Level Estimated
Sat 04:08:00 AM 37.1261 117.2390 240° Southwest  Level Estimated
Sat 04:09:00 AM 37.0853 117.1499 240° Southwest  Level Estimated
Sat 04:10:00 AM 37.0445 117.0608 240° Southwest  Level Estimated
Sat 04:11:00 AM 37.0035 116.9719 240° Southwest  Level Estimated
Sat 04:12:00 AM 36.9625 116.8830 240° Southwest  Level Estimated
Sat 04:13:00 AM 36.9215 116.7943 240° Southwest  Level Estimated
Sat 04:14:00 AM 36.8803 116.7056 240° Southwest  Level Estimated
Sat 04:15:00 AM 36.8391 116.6170 240° Southwest  Level Estimated
Sat 04:16:00 AM 36.7978 116.5285 240° Southwest  Level Estimated
Sat 04:17:00 AM 36.7565 116.4402 240° Southwest  Level Estimated
Sat 04:18:00 AM 36.7151 116.3519 240° Southwest  Level Estimated
Sat 04:19:00 AM 36.6736 116.2637 240° Southwest  Level Estimated
Sat 04:20:00 AM 36.6321 116.1756 240° Southwest  Level Estimated
Sat 04:21:00 AM 36.5905 116.0876 240° Southwest  Level Estimated
Sat 04:22:00 AM 36.5489 115.9997 239° Southwest  Level Estimated
Sat 04:23:00 AM 36.5071 115.9119 239° Southwest  Level Estimated
Sat 04:24:00 AM 36.4654 115.8242 239° Southwest  Level Estimated
Sat 04:25:00 AM 36.4235 115.7366 239° Southwest  Level Estimated
Sat 04:26:00 AM 36.3816 115.6490 239° Southwest  Level Estimated
Sat 04:27:00 AM 36.3396 115.5616 239° Southwest  Level Estimated
Sat 04:28:00 AM 36.2976 115.4743 239° Southwest  Level Estimated
Sat 04:29:00 AM 36.2555 115.3870 239° Southwest  Level Estimated
Sat 04:30:00 AM 36.2133 115.2999 239° Southwest  Level Estimated
Sat 04:31:00 AM 36.1711 115.2128 239° Southwest  Level Estimated
Sat 04:32:00 AM 36.1288 115.1259 239° Southwest  Level Estimated
Sat 04:33:00 AM 36.0864 115.0390 239° Southwest  Level Estimated
Sat 04:34:00 AM 36.0440 114.9522 239° Southwest  Level Estimated
Sat 04:35:00 AM 36.0015 114.8655 239° Southwest  Level Estimated
Sat 04:36:00 AM 35.9590 114.7790 239° Southwest  Level Estimated
Sat 04:37:00 AM 35.9163 114.6925 239° Southwest  Level Estimated
Sat 04:38:00 AM 35.8737 114.6061 239° Southwest  Level Estimated
Sat 04:39:00 AM 35.8309 114.5198 239° Southwest  Level Estimated
Sat 04:40:00 AM 35.7882 114.4335 239° Southwest  Level Estimated
Sat 04:41:00 AM 35.7453 114.3474 239° Southwest  Level Estimated
Sat 04:42:00 AM 35.7024 114.2614 238° Southwest  Level Estimated
Sat 04:43:00 AM 35.6594 114.1755 238° Southwest  Level Estimated
Sat 04:44:00 AM 35.6163 114.0896 238° Southwest  Level Estimated
Sat 04:45:00 AM 35.5732 114.0039 238° Southwest  Level Estimated
Sat 04:46:00 AM 35.5301 113.9182 238° Southwest  Level Estimated
Sat 04:47:00 AM 35.4869 113.8326 238° Southwest  Level Estimated
Sat 04:48:00 AM 35.4436 113.7471 238° Southwest  Level Estimated
Sat 04:49:00 AM 35.4002 113.6618 238° Southwest  Level Estimated
Sat 04:50:00 AM 35.3568 113.5765 238° Southwest  Level Estimated
Sat 04:51:00 AM 35.3134 113.4913 238° Southwest  Level Estimated
Sat 04:52:00 AM 35.2699 113.4062 238° Southwest  Level Estimated
Sat 04:53:00 AM 35.2263 113.3212 238° Southwest  Level Estimated
Sat 04:54:00 AM 35.1827 113.2362 238° Southwest  Level Estimated
Sat 04:55:00 AM 35.1390 113.1514 238° Southwest  Level Estimated
Sat 04:56:00 AM 35.0952 113.0667 238° Southwest  Level Estimated
Sat 04:57:00 AM 35.0514 112.9820 238° Southwest  Level Estimated
Sat 04:58:00 AM 35.0075 112.8974 238° Southwest  Level Estimated
Sat 04:59:00 AM 34.9636 112.8130 238° Southwest  Level Estimated
Sat 05:00:00 AM 34.9196 112.7286 238° Southwest  Level Estimated
Sat 05:01:00 AM 34.8733 112.6400 238° Southwest  Level Estimated
Sat 05:02:00 AM 34.8269 112.5515 237° Southwest  Level Estimated
Sat 05:03:00 AM 34.7805 112.4631 237° Southwest  Level Estimated
Sat 05:04:00 AM 34.7411 112.3883 237° Southwest  Level Estimated
Sat 05:05:00 AM 34.7411 112.3883 68° East  Level Estimated
Sat 05:06:00 AM 34.7411 112.3883 68° East  Level Estimated
Sat 05:07:00 AM 34.7411 112.3883 68° East  Level Estimated
Sat 05:08:00 AM 34.7411 112.3883 68° East  Level Estimated
Sat 05:09:00 AM 34.7411 112.3883 68° East  Level Estimated
Sat 05:10:00 AM 34.7411 112.3883 68° East  Level Estimated
Sat 05:11:00 AM 34.7411 112.3883 68° East  Level Estimated
Sat 05:12:00 AM 34.7411 112.3883 68° East  Level Estimated
Sat 05:13:00 AM 34.7411 112.3883 68° East  Level Estimated
Sat 05:14:00 AM 34.7411 112.3883 68° East  Level Estimated
Sat 05:15:00 AM 34.7411 112.3883 68° East  Level Estimated

Login

Don't have an account? Register now (free) for customized features, flight alerts, and more!